Time;durP1;ratioP1;P1;durP2;ratioP2;P2;SDS_P1;SDS_P2;PMS_P1;PMS_P2;Temp;Humidity;BMP_temperature;BMP_pressure;BME280_temperature;BME280_humidity;BME280_pressure;Samples;Min_cycle;Max_cycle;Signal;HPM_P1;HPM_P2
2022/12/08 05:01:13;;;;;;;19.97;12.20;;;1.30;99.90;;;0.80;nan;97594.63;5624309;23;20509;-73
2022/12/08 05:03:40;;;;;;;25.70;13.83;;;1.30;99.90;;;0.75;nan;97596.97;4947285;28;20462;-73
2022/12/08 05:06:07;;;;;;;28.63;13.43;;;1.30;99.90;;;0.70;nan;97597.53;4946655;28;20497;-73
2022/12/08 05:08:34;;;;;;;25.30;14.40;;;1.30;99.90;;;0.73;nan;97593.50;4947629;28;20446;-73
2022/12/08 05:11:06;;;;;;;29.60;15.27;;;1.30;99.90;;;0.65;nan;97594.78;4947202;28;20860;-73
2022/12/08 05:13:33;;;;;;;24.40;13.10;;;1.20;99.90;;;0.67;nan;97598.25;4947589;29;20464;-73
2022/12/08 05:16:06;;;;;;;26.07;13.27;;;1.20;99.90;;;0.67;nan;97589.81;4947311;28;20512;-73
2022/12/08 05:18:35;;;;;;;22.80;13.37;;;1.20;99.90;;;0.63;nan;97588.81;4947438;29;20814;-73
2022/12/08 05:21:03;;;;;;;21.53;12.40;;;1.20;99.90;;;0.62;nan;97588.72;4947156;29;20481;-73
2022/12/08 05:23:30;;;;;;;27.23;14.23;;;1.20;99.90;;;0.55;nan;97590.09;4946803;29;20713;-73
2022/12/08 05:25:57;;;;;;;23.03;14.07;;;1.10;99.90;;;0.53;nan;97594.22;4935623;29;20498;-74
2022/12/08 05:28:25;;;;;;;23.30;13.40;;;1.10;99.90;;;0.56;nan;97600.28;4928653;29;20462;-64
2022/12/08 05:30:52;;;;;;;24.30;13.10;;;1.10;99.90;;;0.49;nan;97587.25;4927907;29;20474;-64
2022/12/08 05:33:19;;;;;;;27.70;14.07;;;1.10;99.90;;;0.46;nan;97587.97;4928114;29;20543;-64
2022/12/08 05:35:48;;;;;;;26.13;13.73;;;1.00;99.90;;;0.43;nan;97592.03;4931499;29;20457;-76
2022/12/08 05:38:14;;;;;;;22.27;12.40;;;1.00;99.90;;;0.40;nan;97590.19;4935893;29;20458;-75
2022/12/08 05:40:42;;;;;;;21.53;11.70;;;1.00;99.90;;;0.34;nan;97584.88;4937265;29;20470;-75
2022/12/08 05:43:10;;;;;;;30.93;13.27;;;1.00;99.90;;;0.27;nan;97587.88;4936811;29;20486;-75
2022/12/08 05:45:37;;;;;;;31.27;17.10;;;0.90;99.90;;;0.34;nan;97587.38;4936746;29;20498;-75
2022/12/08 05:48:05;;;;;;;33.37;16.67;;;0.90;99.90;;;0.27;nan;97583.69;4935548;29;20450;-76
2022/12/08 05:50:32;;;;;;;25.67;15.07;;;0.90;99.90;;;0.27;nan;97590.41;4936218;29;20504;-75
2022/12/08 05:53:00;;;;;;;24.93;14.30;;;0.90;99.90;;;0.29;nan;97577.03;4935944;29;20461;-76
2022/12/08 05:55:27;;;;;;;23.23;13.57;;;0.90;99.90;;;0.29;nan;97583.75;4934140;29;20461;-75
2022/12/08 05:57:54;;;;;;;26.27;14.90;;;0.90;99.90;;;0.29;nan;97587.16;4934987;29;20461;-76
2022/12/08 06:00:22;;;;;;;27.60;14.93;;;0.90;99.90;;;0.23;nan;97583.47;4936842;29;20454;-76
2022/12/08 06:02:49;;;;;;;25.87;15.17;;;0.80;99.90;;;0.24;nan;97583.53;4937049;29;20457;-76
2022/12/08 06:05:16;;;;;;;22.47;13.27;;;0.80;99.90;;;0.24;nan;97588.59;4937222;29;20549;-76
2022/12/08 06:07:43;;;;;;;25.10;12.40;;;0.80;99.90;;;0.25;nan;97587.81;4936572;29;20449;-75
2022/12/08 06:10:13;;;;;;;19.40;11.27;;;0.80;99.90;;;0.19;nan;97584.97;4936771;29;20457;-75
2022/12/08 06:12:40;;;;;;;14.90;8.90;;;0.80;99.90;;;0.22;nan;97584.28;4936996;29;20799;-75
2022/12/08 06:15:08;;;;;;;16.20;9.50;;;0.80;99.90;;;0.14;nan;97576.31;4936965;29;20453;-76
2022/12/08 06:17:35;;;;;;;17.70;10.23;;;0.80;99.90;;;0.10;nan;97576.06;4935908;29;20442;-75
2022/12/08 06:20:03;;;;;;;23.67;13.70;;;0.70;99.90;;;0.15;nan;97588.16;4935903;29;20462;-75
2022/12/08 06:22:30;;;;;;;20.80;11.83;;;0.70;99.90;;;0.15;nan;97579.69;4935852;29;20484;-76
2022/12/08 06:24:57;;;;;;;19.03;12.33;;;0.80;99.90;;;0.10;nan;97578.59;4935523;29;20461;-77
2022/12/08 06:27:25;;;;;;;20.30;12.60;;;0.70;99.90;;;0.16;nan;97579.78;4936656;29;20541;-77
2022/12/08 06:29:52;;;;;;;18.87;10.80;;;0.80;99.90;;;0.20;nan;97580.78;4935105;29;21223;-77
2022/12/08 06:32:19;;;;;;;15.60;10.67;;;0.70;99.90;;;0.17;nan;97580.63;4934095;29;20479;-75
2022/12/08 06:34:46;;;;;;;16.97;10.57;;;0.80;99.90;;;0.20;nan;97590.88;4935721;29;20462;-76
2022/12/08 06:37:13;;;;;;;16.83;9.80;;;0.80;99.90;;;0.26;nan;97589.53;4934967;29;20454;-76
2022/12/08 06:39:40;;;;;;;18.27;11.17;;;0.80;99.90;;;0.23;nan;97584.34;4934974;29;20454;-76
2022/12/08 06:44:53;;;;;;;19.97;13.17;;;0.80;99.90;;;0.24;nan;97582.69;4932993;29;20446;-77
2022/12/08 06:47:21;;;;;;;19.57;12.60;;;0.80;99.90;;;0.16;nan;97582.28;4929938;29;20469;-77
2022/12/08 06:49:49;;;;;;;19.53;12.03;;;0.80;99.90;;;0.09;nan;97585.31;4928404;29;20998;-77
2022/12/08 06:52:16;;;;;;;19.53;13.37;;;0.70;99.90;;;0.08;nan;97588.63;4945614;29;20478;-77
2022/12/08 06:54:43;;;;;;;21.57;13.23;;;0.70;99.90;;;0.14;nan;97593.13;4935132;29;20473;-78
2022/12/08 06:57:10;;;;;;;24.90;15.70;;;0.70;99.90;;;0.17;nan;97593.28;4932490;29;20461;-77
2022/12/08 06:59:39;;;;;;;18.43;12.00;;;0.70;99.90;;;0.15;nan;97592.34;4932104;29;20473;-77
2022/12/08 07:02:07;;;;;;;19.30;12.33;;;0.70;99.90;;;0.09;nan;97600.47;4932576;29;20489;-76
2022/12/08 07:04:34;;;;;;;17.20;11.90;;;0.70;99.90;;;0.06;nan;97590.22;4931604;29;20824;-76
2022/12/08 07:07:01;;;;;;;25.23;14.10;;;0.60;99.90;;;0.02;nan;97590.00;4930594;29;20581;-77
2022/12/08 07:09:28;;;;;;;22.37;14.83;;;0.60;99.90;;;-0.02;nan;97589.81;4930711;29;20480;-76
2022/12/08 07:11:55;;;;;;;25.33;13.80;;;0.60;99.90;;;-0.08;nan;97592.06;4931005;29;20475;-81
2022/12/08 07:14:23;;;;;;;22.83;13.30;;;0.60;99.90;;;-0.11;nan;97593.53;4931089;29;20810;-77
2022/12/08 07:16:51;;;;;;;22.50;14.43;;;0.50;99.90;;;-0.08;nan;97597.09;4930198;29;20498;-76
2022/12/08 07:19:19;;;;;;;18.10;11.70;;;0.50;99.90;;;-0.05;nan;97593.88;4930867;29;20454;-76
2022/12/08 07:21:46;;;;;;;24.97;13.37;;;0.50;99.90;;;-0.06;nan;97593.00;4930860;29;20480;-77
2022/12/08 07:24:13;;;;;;;21.73;13.50;;;0.50;99.90;;;-0.14;nan;97586.69;4931001;29;20458;-77
2022/12/08 07:26:40;;;;;;;22.43;13.50;;;0.50;99.90;;;-0.17;nan;97585.66;4930023;29;20506;-76
2022/12/08 07:29:09;;;;;;;23.83;13.87;;;0.40;99.90;;;-0.19;nan;97588.13;4931570;29;20454;-76
2022/12/08 07:31:36;;;;;;;31.97;17.77;;;0.40;99.90;;;-0.14;nan;97590.88;4930167;29;20866;-76
2022/12/08 07:34:03;;;;;;;30.33;15.83;;;0.50;99.90;;;-0.24;nan;97598.78;4930552;29;21157;-76
2022/12/08 07:36:32;;;;;;;29.13;16.57;;;0.40;99.90;;;-0.35;nan;97591.50;4930556;29;20464;-77
2022/12/08 07:38:59;;;;;;;30.33;15.07;;;0.30;99.90;;;-0.44;nan;97596.09;4931278;29;20868;-77
2022/12/08 07:41:26;;;;;;;27.33;15.00;;;0.30;99.90;;;-0.40;nan;97597.13;4931029;29;20478;-76
2022/12/08 07:43:55;;;;;;;33.77;19.70;;;0.30;99.90;;;-0.30;nan;97596.81;4931388;29;20458;-76
2022/12/08 07:46:25;;;;;;;33.00;16.17;;;0.30;99.90;;;-0.25;nan;97602.09;4930396;29;20497;-78
2022/12/08 07:48:53;;;;;;;32.10;14.47;;;0.30;99.90;;;-0.25;nan;97597.91;4930528;29;20459;-78
2022/12/08 07:51:21;;;;;;;26.77;14.90;;;0.30;99.90;;;-0.31;nan;97597.56;4930602;29;20482;-77
2022/12/08 07:53:51;;;;;;;27.00;15.70;;;0.30;99.90;;;-0.22;nan;97600.56;4931049;29;20518;-76
2022/12/08 07:56:19;;;;;;;22.97;15.17;;;0.40;99.90;;;-0.20;nan;97596.50;4930539;29;20438;-76
2022/12/08 07:58:46;;;;;;;36.03;16.93;;;0.40;99.90;;;-0.38;nan;97577.88;4931056;29;20467;-76
2022/12/08 08:01:22;;;;;;;25.50;15.17;;;0.40;99.90;;;-0.24;nan;97586.16;4929896;29;20497;-77
2022/12/08 08:03:50;;;;;;;25.33;14.30;;;0.40;99.90;;;-0.22;nan;97585.41;4930273;29;20462;-76
2022/12/08 08:06:17;;;;;;;29.50;14.83;;;0.40;99.90;;;-0.24;nan;97583.63;4929848;29;20501;-76
2022/12/08 08:08:44;;;;;;;28.17;15.63;;;0.40;99.90;;;-0.23;nan;97585.34;4930370;29;20477;-76
2022/12/08 08:11:12;;;;;;;31.90;17.10;;;0.40;99.90;;;-0.23;nan;97586.22;4930425;29;20483;-76
2022/12/08 08:13:39;;;;;;;35.37;17.43;;;0.40;99.90;;;-0.26;nan;97591.13;4930017;29;21230;-77
2022/12/08 08:16:12;;;;;;;31.67;16.90;;;0.40;99.90;;;-0.27;nan;97588.53;4929653;29;20947;-78
2022/12/08 08:18:39;;;;;;;29.60;16.67;;;0.40;99.90;;;-0.22;nan;97582.91;4929307;29;20557;-65
2022/12/08 08:21:07;;;;;;;29.70;16.73;;;0.40;99.90;;;-0.06;nan;97577.84;4928349;29;20999;-76
2022/12/08 08:23:35;;;;;;;30.97;17.00;;;0.50;99.90;;;-0.02;nan;97581.38;4928665;29;21180;-76
2022/12/08 08:26:04;;;;;;;32.40;16.47;;;0.60;99.90;;;-0.02;nan;97572.13;4928729;29;21063;-76
2022/12/08 08:28:33;;;;;;;31.93;17.13;;;0.60;99.90;;;0.09;nan;97570.13;4929471;29;20463;-76
2022/12/08 08:31:02;;;;;;;33.20;18.87;;;0.70;99.90;;;0.21;nan;97573.28;4928852;29;20888;-76
2022/12/08 08:33:29;;;;;;;45.33;28.10;;;0.80;99.90;;;0.26;nan;97576.91;4929242;29;20458;-76
2022/12/08 08:35:56;;;;;;;34.87;19.47;;;0.90;99.90;;;0.39;nan;97573.28;4928396;29;21084;-76
2022/12/08 08:38:23;;;;;;;29.00;17.40;;;1.00;99.90;;;0.48;nan;97576.28;4928963;29;20980;-76
2022/12/08 08:40:50;;;;;;;34.10;19.23;;;1.10;99.90;;;0.60;nan;97576.00;4928763;29;20482;-76
2022/12/08 08:43:28;;;;;;;31.30;17.50;;;1.10;99.90;;;0.75;nan;97576.72;4928802;29;20462;-77
2022/12/08 08:45:58;;;;;;;41.57;22.03;;;1.30;99.90;;;0.89;nan;97584.09;4928296;29;20478;-76
2022/12/08 08:48:26;;;;;;;33.63;15.63;;;1.40;99.90;;;0.89;nan;97579.03;4929350;29;20439;-77
2022/12/08 08:50:53;;;;;;;26.60;15.90;;;1.50;99.90;;;0.82;nan;97583.81;4928581;29;20482;-76
2022/12/08 08:53:21;;;;;;;30.77;15.60;;;1.50;99.90;;;0.94;nan;97582.66;4928936;29;20455;-76
2022/12/08 08:55:48;;;;;;;27.97;14.40;;;1.60;99.90;;;1.02;nan;97579.69;4930110;29;20466;-76
2022/12/08 08:58:16;;;;;;;25.43;13.73;;;1.60;99.90;;;1.15;nan;97578.56;4929266;29;20484;-76
2022/12/08 09:00:43;;;;;;;24.63;14.70;;;1.80;99.90;;;1.24;nan;97576.47;4929444;29;20487;-76
2022/12/08 09:03:11;;;;;;;48.30;25.33;;;1.80;99.90;;;1.34;nan;97572.69;4930120;29;20462;-76
2022/12/08 09:05:40;;;;;;;26.43;15.87;;;1.90;99.90;;;1.39;nan;97566.13;4929673;29;20955;-76
2022/12/08 09:08:07;;;;;;;24.63;15.07;;;2.00;99.90;;;1.58;nan;97565.28;4929689;29;20457;-76
2022/12/08 09:10:33;;;;;;;27.67;16.10;;;2.10;99.90;;;1.79;nan;97565.34;4929750;29;20858;-76
2022/12/08 09:13:00;;;;;;;25.93;15.13;;;2.30;99.90;;;1.79;nan;97570.41;4928631;29;20458;-76
2022/12/08 09:15:28;;;;;;;25.50;14.10;;;2.40;99.90;;;1.99;nan;97560.31;4929299;29;20848;-76
2022/12/08 09:17:55;;;;;;;24.13;12.80;;;2.50;99.90;;;1.96;nan;97565.28;4928747;29;20458;-75
2022/12/08 09:20:23;;;;;;;21.57;12.60;;;2.60;99.90;;;1.98;nan;97561.13;4928086;29;20831;-75
2022/12/08 09:22:50;;;;;;;19.90;11.57;;;2.60;99.90;;;2.08;nan;97564.06;4928102;29;20466;-75
2022/12/08 09:25:17;;;;;;;18.30;11.57;;;2.60;99.90;;;2.19;nan;97560.28;4928548;29;20469;-75
2022/12/08 09:27:44;;;;;;;20.27;12.10;;;2.80;99.90;;;2.36;nan;97558.47;4927733;29;20498;-77
2022/12/08 09:30:11;;;;;;;18.60;11.50;;;2.80;99.90;;;2.42;nan;97566.28;4930278;29;20458;-77
2022/12/08 09:32:38;;;;;;;20.70;11.70;;;2.90;99.90;;;2.72;nan;97556.50;4928712;29;20517;-75
2022/12/08 09:35:06;;;;;;;16.73;10.73;;;3.20;99.90;;;2.60;nan;97552.69;4928180;29;20462;-75
2022/12/08 09:37:34;;;;;;;21.43;11.23;;;3.20;99.90;;;2.99;nan;97555.03;4927418;29;20458;-75
2022/12/08 09:40:01;;;;;;;16.93;11.00;;;3.40;99.90;;;3.09;nan;97558.78;4928122;29;20465;-75
2022/12/08 09:42:48;;;;;;;16.37;10.57;;;3.50;99.90;;;3.34;nan;97551.25;4928183;29;20478;-75
2022/12/08 09:45:17;;;;;;;18.37;11.00;;;3.70;99.90;;;3.17;nan;97545.59;4928177;29;21026;-75
2022/12/08 09:47:52;;;;;;;18.17;10.30;;;3.70;99.90;;;3.11;nan;97550.41;4927365;29;20497;-75
2022/12/08 09:50:32;;;;;;;18.17;11.00;;;3.70;99.90;;;3.63;nan;97541.28;4927761;29;20803;-75
2022/12/08 09:53:09;;;;;;;15.37;9.33;;;3.90;99.90;;;3.75;nan;97542.59;4928247;29;20978;-75
2022/12/08 09:55:44;;;;;;;18.47;11.37;;;4.10;99.90;;;3.84;nan;97533.56;4926034;29;20445;-75
2022/12/08 09:58:23;;;;;;;19.70;10.67;;;4.30;99.90;;;3.62;nan;97530.25;4926563;29;20994;-76
2022/12/08 10:00:50;;;;;;;14.87;10.67;;;4.20;99.90;;;4.05;nan;97529.19;4926573;29;20494;-75
2022/12/08 10:03:18;;;;;;;17.13;10.57;;;4.40;99.90;;;3.96;nan;97517.03;4926930;29;20920;-76
2022/12/08 10:05:56;;;;;;;15.40;10.70;;;4.40;99.90;;;4.11;nan;97513.28;4926798;29;20971;-75
2022/12/08 10:08:34;;;;;;;17.97;11.60;;;4.50;99.90;;;4.61;nan;97513.25;4926834;29;20445;-75
2022/12/08 10:11:13;;;;;;;24.73;11.37;;;4.90;99.90;;;4.87;nan;97514.03;4926925;29;20488;-75
2022/12/08 10:13:52;;;;;;;19.90;12.23;;;5.20;99.90;;;4.77;nan;97513.69;4927020;29;20556;-75
2022/12/08 10:16:28;;;;;;;15.40;9.40;;;5.20;99.90;;;5.00;nan;97507.59;4926271;29;20454;-75
2022/12/08 10:19:10;;;;;;;15.83;10.60;;;5.30;99.90;;;5.03;nan;97507.72;4927032;29;20446;-75
2022/12/08 10:21:39;;;;;;;16.93;10.47;;;5.40;99.90;;;5.25;nan;97499.00;4926346;29;20478;-75
2022/12/08 10:24:18;;;;;;;13.60;9.47;;;5.50;99.90;;;5.33;nan;97505.19;4928853;29;20482;-75
2022/12/08 10:26:47;;;;;;;12.77;8.97;;;5.60;99.90;;;5.50;nan;97500.56;4929061;29;21009;-75
2022/12/08 10:29:14;;;;;;;16.87;10.40;;;5.80;99.90;;;5.28;nan;97495.69;4929307;29;20469;-68
2022/12/08 10:31:42;;;;;;;14.87;9.43;;;5.80;99.90;;;5.07;nan;97498.47;4930073;29;20482;-71
2022/12/08 10:34:21;;;;;;;16.57;9.60;;;5.70;99.90;;;5.22;nan;97496.38;4930986;29;20553;-76
2022/12/08 10:36:52;;;;;;;17.23;8.40;;;5.70;99.90;;;5.27;nan;97488.88;4930212;29;20445;-76
2022/12/08 10:39:37;;;;;;;16.00;9.60;;;5.80;99.90;;;5.47;nan;97487.72;4931230;29;20446;-75
2022/12/08 10:42:18;;;;;;;13.83;9.17;;;5.90;99.90;;;5.67;nan;97484.03;4930501;29;20480;-76
2022/12/08 10:45:00;;;;;;;12.60;8.90;;;6.00;99.90;;;5.95;nan;97480.56;4932020;29;20474;-77
2022/12/08 10:47:34;;;;;;;12.30;9.00;;;6.20;99.90;;;6.09;nan;97475.81;4931623;29;20487;-76
2022/12/08 10:50:20;;;;;;;12.83;9.13;;;6.40;99.90;;;6.05;nan;97484.22;4932020;29;20861;-75
2022/12/08 10:52:57;;;;;;;12.53;8.40;;;6.50;99.90;;;6.24;nan;97470.22;4932753;29;20435;-74
2022/12/08 10:55:26;;;;;;;12.27;8.50;;;6.60;99.90;;;5.92;nan;97471.94;4933569;29;20551;-75
2022/12/08 10:57:53;;;;;;;10.47;7.63;;;6.50;99.90;;;6.26;nan;97469.44;4932082;29;21389;-76
2022/12/08 11:00:24;;;;;;;10.20;7.33;;;6.60;99.90;;;5.69;nan;97466.22;4933004;29;21010;-74
2022/12/08 11:03:01;;;;;;;13.00;8.40;;;6.40;99.90;;;5.82;nan;97468.25;4933011;29;20443;-76
2022/12/08 11:05:32;;;;;;;13.43;8.10;;;6.30;99.90;;;5.30;nan;97464.31;4932471;29;20476;-75
2022/12/08 11:08:00;;;;;;;13.70;8.73;;;6.20;99.90;;;5.14;nan;97468.13;4933223;29;20486;-74
2022/12/08 11:10:38;;;;;;;14.97;9.97;;;5.90;99.90;;;5.33;nan;97461.03;4933416;29;20459;-74
2022/12/08 11:13:17;;;;;;;10.87;7.80;;;5.90;99.90;;;5.69;nan;97453.47;4933798;29;20449;-74
2022/12/08 11:15:46;;;;;;;12.77;8.60;;;6.00;99.90;;;5.63;nan;97451.66;4937342;29;20467;-74
2022/12/08 11:18:26;;;;;;;10.50;8.00;;;6.10;99.90;;;5.84;nan;97442.81;4932800;29;20446;-74
2022/12/08 11:21:01;;;;;;;11.23;7.13;;;6.20;99.90;;;5.67;nan;97439.84;4930673;29;21058;-77
2022/12/08 11:23:30;;;;;;;6.57;5.50;;;6.20;99.90;;;5.76;nan;97435.84;4932742;29;20461;-75
2022/12/08 11:26:14;;;;;;;8.00;5.93;;;6.20;99.90;;;5.73;nan;97424.72;4930622;29;20454;-80
2022/12/08 11:28:41;;;;;;;8.50;5.60;;;6.20;99.90;;;5.60;nan;97436.25;4936402;29;20969;-81
2022/12/08 11:31:27;;;;;;;8.40;5.83;;;6.10;99.90;;;5.81;nan;97435.06;4936684;29;20478;-80
2022/12/08 11:33:54;;;;;;;8.83;6.93;;;6.10;99.90;;;5.78;nan;97421.44;4937300;29;20439;-84
2022/12/08 11:36:25;;;;;;;9.00;6.13;;;6.20;99.90;;;5.74;nan;97419.66;4932928;29;20455;-81
2022/12/08 11:39:04;;;;;;;8.40;6.13;;;6.20;99.90;;;5.81;nan;97419.78;4934172;29;20989;-80
2022/12/08 11:41:41;;;;;;;10.57;6.80;;;6.20;99.90;;;5.86;nan;97413.13;4935144;29;20909;-81
2022/12/08 11:44:28;;;;;;;10.77;6.47;;;6.20;99.90;;;5.64;nan;97419.38;4935230;29;20444;-80
2022/12/08 11:47:00;;;;;;;8.27;5.57;;;6.10;99.90;;;5.63;nan;97412.53;4934577;29;20835;-79
2022/12/08 11:49:36;;;;;;;7.90;5.97;;;6.10;99.90;;;5.70;nan;97414.41;4936471;29;20526;-79
2022/12/08 11:52:17;;;;;;;8.67;6.73;;;6.10;99.90;;;5.65;nan;97414.31;4934348;29;20906;-81
2022/12/08 11:54:53;;;;;;;8.90;6.07;;;6.10;99.90;;;5.71;nan;97413.59;4935380;29;20504;-77
2022/12/08 11:57:26;;;;;;;8.60;6.20;;;6.10;99.90;;;5.57;nan;97409.84;4932893;29;20458;-81
2022/12/08 11:59:58;;;;;;;9.95;6.50;;;6.00;99.90;;;5.45;nan;97411.25;4935956;29;21230;-77
2022/12/08 12:02:30;;;;;;;9.67;6.73;;;6.00;99.90;;;5.03;nan;97410.09;4931861;29;20297;-80
2022/12/08 12:05:04;;;;;;;9.90;5.87;;;5.90;99.90;;;5.37;nan;97409.31;4932876;29;20454;-78
2022/12/08 12:08:05;;;;;;;7.93;5.73;;;5.90;99.90;;;5.51;nan;97407.97;4932127;29;20485;-81
2022/12/08 12:10:48;;;;;;;8.13;5.57;;;5.90;99.90;;;5.53;nan;97402.94;4931048;29;20494;-83
2022/12/08 12:13:55;;;;;;;8.93;5.70;;;5.90;99.90;;;5.43;nan;97401.84;4932189;29;20453;-81
2022/12/08 12:17:00;;;;;;;8.53;6.30;;;5.90;99.90;;;5.22;nan;97396.16;4932487;29;20473;-81
2022/12/08 12:19:33;;;;;;;8.90;6.10;;;5.70;99.90;;;5.38;nan;97395.75;4932488;29;20447;-83
2022/12/08 12:22:13;;;;;;;7.67;5.83;;;5.80;99.90;;;5.34;nan;97394.81;4933893;29;20470;-80
2022/12/08 12:24:44;;;;;;;6.67;5.07;;;5.80;99.90;;;5.19;nan;97387.59;4932900;29;20442;-80
2022/12/08 12:27:27;;;;;;;7.77;5.93;;;5.70;99.90;;;5.24;nan;97391.97;4933264;29;20486;-81
2022/12/08 12:30:01;;;;;;;8.50;6.10;;;5.70;99.90;;;5.02;nan;97399.03;4930707;29;20445;-79
2022/12/08 12:32:44;;;;;;;7.57;5.07;;;5.60;99.90;;;5.14;nan;97388.31;4932185;29;20562;-83
2022/12/08 12:35:20;;;;;;;9.20;6.20;;;5.60;99.90;;;5.18;nan;97387.56;4932248;29;20457;-82
2022/12/08 12:37:49;;;;;;;9.00;5.93;;;5.60;99.90;;;5.14;nan;97386.63;4932522;29;20914;-82
2022/12/08 12:40:20;;;;;;;8.93;6.40;;;5.60;99.90;;;5.22;nan;97383.44;4931130;29;20466;-85
2022/12/08 12:43:13;;;;;;;9.23;6.07;;;5.60;99.90;;;5.23;nan;97377.50;4930756;29;20827;-83
2022/12/08 12:45:43;;;;;;;8.20;5.87;;;5.70;99.90;;;5.16;nan;97364.59;4931072;29;20450;-82
2022/12/08 12:48:24;;;;;;;10.63;6.50;;;5.60;99.90;;;5.23;nan;97377.50;4930419;29;20488;-83
2022/12/08 12:50:54;;;;;;;7.50;5.20;;;5.60;99.90;;;5.25;nan;97366.53;4929902;29;20524;-83
2022/12/08 12:53:50;;;;;;;7.43;5.00;;;5.70;99.90;;;5.34;nan;97364.22;4929795;29;20557;-78
2022/12/08 12:56:51;;;;;;;8.10;5.43;;;5.70;99.90;;;5.18;nan;97367.19;4928112;29;20497;-65
2022/12/08 12:59:45;;;;;;;8.80;5.70;;;5.60;99.90;;;5.19;nan;97358.72;4923269;29;20558;-65
2022/12/08 13:02:27;;;;;;;7.60;5.17;;;5.60;99.90;;;5.24;nan;97356.31;4927037;29;20486;-65
2022/12/08 13:05:01;;;;;;;8.43;5.80;;;5.60;99.90;;;4.95;nan;97353.84;4929665;29;21001;-82
2022/12/08 13:07:32;;;;;;;10.07;5.03;;;5.60;99.90;;;4.61;nan;97363.09;4930664;29;20478;-79
2022/12/08 13:10:11;;;;;;;10.80;8.20;;;5.40;99.90;;;4.47;nan;97354.16;4931310;29;20468;-79
2022/12/08 13:12:38;;;;;;;9.67;5.50;;;5.20;99.90;;;4.54;nan;97350.13;4930723;29;20434;-79
2022/12/08 13:15:16;;;;;;;9.70;5.60;;;5.10;99.90;;;4.42;nan;97348.09;4931169;29;20831;-79
2022/12/08 13:17:48;;;;;;;6.93;5.17;;;5.10;99.90;;;4.61;nan;97347.81;4930878;29;20458;-81
2022/12/08 13:20:22;;;;;;;8.30;5.60;;;5.10;99.90;;;4.79;nan;97347.44;4931340;29;20461;-81
2022/12/08 13:23:11;;;;;;;7.70;5.67;;;5.20;99.90;;;4.97;nan;97344.53;4931501;29;20448;-84
2022/12/08 13:25:51;;;;;;;7.37;5.90;;;5.30;99.90;;;4.97;nan;97343.69;4931453;29;20459;-82
2022/12/08 13:28:27;;;;;;;8.20;5.17;;;5.40;99.90;;;4.86;nan;97341.72;4930775;29;20485;-80
2022/12/08 13:30:57;;;;;;;7.57;5.40;;;5.40;99.90;;;4.96;nan;97341.97;4931740;29;20478;-80
2022/12/08 13:33:32;;;;;;;9.13;5.40;;;5.40;99.90;;;5.06;nan;97331.19;4932476;29;20466;-82
2022/12/08 13:36:21;;;;;;;9.67;5.30;;;5.40;99.90;;;5.06;nan;97339.69;4932891;29;20442;-82
2022/12/08 13:38:54;;;;;;;6.50;5.43;;;5.50;99.90;;;5.15;nan;97341.63;4931983;29;20915;-77
2022/12/08 13:41:35;;;;;;;7.03;5.37;;;5.50;99.90;;;5.23;nan;97340.16;4930355;29;20481;-78
2022/12/08 13:44:12;;;;;;;7.60;5.30;;;5.60;99.90;;;5.22;nan;97340.97;4932718;29;20464;-79
2022/12/08 13:46:45;;;;;;;7.70;5.13;;;5.60;99.90;;;5.10;nan;97335.53;4931263;29;20447;-80
2022/12/08 13:49:18;;;;;;;7.73;5.30;;;5.50;99.90;;;5.02;nan;97342.13;4930226;29;20454;-80
2022/12/08 13:51:48;;;;;;;8.60;5.40;;;5.40;99.90;;;4.84;nan;97333.16;4931949;29;20880;-79
2022/12/08 13:54:22;;;;;;;6.70;4.70;;;5.50;99.90;;;4.90;nan;97338.44;4931280;29;20453;-81
2022/12/08 13:56:52;;;;;;;7.43;5.50;;;5.40;99.90;;;5.02;nan;97334.50;4930156;29;20923;-78
2022/12/08 13:59:31;;;;;;;8.27;6.73;;;5.50;99.90;;;5.08;nan;97334.66;4934487;29;20450;-80
2022/12/08 14:02:04;;;;;;;10.23;5.70;;;5.50;99.90;;;5.16;nan;97341.66;4935313;29;20486;-81
2022/12/08 14:04:33;;;;;;;8.23;6.60;;;5.50;99.90;;;5.25;nan;97340.19;4935394;29;20990;-79
2022/12/08 14:07:02;;;;;;;7.80;5.93;;;5.60;99.90;;;5.28;nan;97333.47;4934563;29;20458;-80
2022/12/08 14:09:36;;;;;;;7.73;6.10;;;5.60;99.90;;;5.19;nan;97323.03;4936710;29;20501;-79
2022/12/08 14:12:08;;;;;;;8.80;6.13;;;5.60;99.90;;;5.12;nan;97326.28;4937154;29;20468;-80
2022/12/08 14:14:41;;;;;;;10.10;7.23;;;5.60;99.90;;;5.12;nan;97339.88;4936203;29;20465;-79
2022/12/08 14:17:14;;;;;;;8.67;6.77;;;5.50;99.90;;;5.14;nan;97339.91;4933626;29;20434;-77
2022/12/08 14:19:53;;;;;;;9.80;6.87;;;5.60;99.90;;;5.15;nan;97332.31;4933895;29;20449;-76
2022/12/08 14:22:20;;;;;;;10.50;7.43;;;5.50;99.90;;;5.14;nan;97329.72;4932927;29;20484;-77
2022/12/08 14:24:50;;;;;;;11.10;7.50;;;5.60;99.90;;;5.07;nan;97323.59;4933063;29;20494;-77
2022/12/08 14:27:20;;;;;;;15.23;6.83;;;5.50;99.90;;;5.06;nan;97321.00;4932140;29;20814;-79
2022/12/08 14:29:49;;;;;;;8.30;5.60;;;5.50;99.90;;;5.10;nan;97326.22;4933601;29;20458;-79
2022/12/08 14:32:29;;;;;;;8.17;5.73;;;5.50;99.90;;;5.12;nan;97327.16;4932898;29;20536;-77
2022/12/08 14:35:15;;;;;;;8.53;6.20;;;5.60;99.90;;;5.20;nan;97324.78;4934080;29;20518;-81
2022/12/08 14:37:46;;;;;;;9.23;6.70;;;5.60;99.90;;;5.11;nan;97327.09;4931550;29;20445;-75
2022/12/08 14:40:22;;;;;;;9.97;6.90;;;5.60;99.90;;;5.15;nan;97334.00;4931167;29;20461;-76
2022/12/08 14:42:53;;;;;;;10.50;8.70;;;5.50;99.90;;;5.16;nan;97333.16;4931757;29;20438;-76
2022/12/08 14:45:21;;;;;;;7.90;5.50;;;5.50;99.90;;;5.17;nan;97335.75;4931064;29;20443;-76
2022/12/08 14:47:48;;;;;;;9.80;6.13;;;5.50;99.90;;;5.11;nan;97340.72;4929877;29;20497;-77
2022/12/08 14:50:39;;;;;;;7.17;5.60;;;5.50;99.90;;;5.09;nan;97344.00;4930426;29;20977;-76
2022/12/08 14:53:14;;;;;;;8.10;5.30;;;5.50;99.90;;;5.03;nan;97338.78;4930568;29;20443;-76
2022/12/08 14:55:43;;;;;;;10.47;6.93;;;5.50;99.90;;;5.00;nan;97343.75;4930667;29;20954;-76
2022/12/08 14:58:23;;;;;;;6.70;4.90;;;5.40;99.90;;;4.87;nan;97342.56;4930196;29;20959;-76
2022/12/08 15:00:53;;;;;;;9.33;6.63;;;5.30;99.90;;;4.88;nan;97334.97;4930632;29;20530;-76
2022/12/08 15:03:22;;;;;;;12.23;6.87;;;5.30;99.90;;;4.95;nan;97342.78;4931062;29;20446;-76
2022/12/08 15:05:56;;;;;;;8.97;6.10;;;5.30;99.90;;;4.87;nan;97340.88;4931115;29;20465;-76
2022/12/08 15:08:23;;;;;;;10.33;6.10;;;5.30;99.90;;;4.90;nan;97343.53;4930688;29;20582;-66
2022/12/08 15:11:30;;;;;;;12.10;6.90;;;5.30;99.90;;;4.85;nan;97334.91;4929055;29;21397;-66
2022/12/08 15:13:57;;;;;;;10.07;5.67;;;5.30;99.90;;;4.87;nan;97334.94;4930295;29;20454;-77
2022/12/08 15:16:29;;;;;;;6.90;5.07;;;5.20;99.90;;;4.81;nan;97333.09;4930879;29;20840;-76
2022/12/08 15:19:16;;;;;;;9.60;5.90;;;5.20;99.90;;;4.69;nan;97342.91;4931023;29;20570;-76
2022/12/08 15:21:46;;;;;;;6.77;5.30;;;5.20;99.90;;;4.55;nan;97342.53;4931069;29;20478;-76
2022/12/08 15:24:15;;;;;;;8.97;6.47;;;5.10;99.90;;;4.68;nan;97337.78;4931468;29;21204;-76
2022/12/08 15:26:46;;;;;;;9.00;6.40;;;5.10;99.90;;;4.74;nan;97326.09;4931215;29;20526;-76
2022/12/08 15:29:21;;;;;;;9.90;6.47;;;5.10;99.90;;;4.77;nan;97326.19;4930773;29;20854;-76
2022/12/08 15:31:49;;;;;;;15.33;7.70;;;5.10;99.90;;;4.77;nan;97326.19;4931404;29;20485;-76
2022/12/08 15:34:16;;;;;;;11.67;6.60;;;5.10;99.90;;;4.77;nan;97323.63;4930957;29;20559;-76
2022/12/08 15:36:46;;;;;;;11.53;7.60;;;5.20;99.90;;;4.75;nan;97327.81;4930069;29;20466;-76
2022/12/08 15:39:33;;;;;;;11.10;7.00;;;5.10;99.90;;;4.71;nan;97333.66;4930222;29;20441;-76
2022/12/08 15:42:03;;;;;;;10.27;6.77;;;5.10;99.90;;;4.71;nan;97336.22;4930399;29;20573;-76
2022/12/08 15:44:31;;;;;;;9.20;5.93;;;5.10;99.90;;;4.70;nan;97328.50;4931448;29;20466;-76
2022/12/08 15:46:59;;;;;;;9.47;6.60;;;5.10;99.90;;;4.67;nan;97331.84;4931429;29;20461;-76
2022/12/08 15:49:26;;;;;;;10.87;7.20;;;5.00;99.90;;;4.67;nan;97334.38;4930649;29;20509;-76
2022/12/08 15:51:55;;;;;;;18.43;7.47;;;5.10;99.90;;;4.64;nan;97339.38;4930861;29;20474;-77
2022/12/08 15:54:22;;;;;;;11.50;8.20;;;5.10;99.90;;;4.66;nan;97330.09;4930166;29;20469;-76
2022/12/08 15:56:53;;;;;;;12.93;7.60;;;5.10;99.90;;;4.64;nan;97336.84;4928988;29;20465;-76
2022/12/08 15:59:24;;;;;;;11.83;8.07;;;5.00;99.90;;;4.63;nan;97332.56;4929787;29;20465;-76
2022/12/08 16:01:52;;;;;;;15.40;8.83;;;5.00;99.90;;;4.62;nan;97324.09;4929855;29;20496;-76